sensor_id;sensor_type;location;lat;lon;timestamp;P1;durP1;ratioP1;P2;durP2;ratioP2
26774;SDS011;14362;51.902;7.626;2023-11-21T00:01:35;22.60;;;15.18;;
26774;SDS011;14362;51.902;7.626;2023-11-21T00:05:37;21.40;;;14.60;;
26774;SDS011;14362;51.902;7.626;2023-11-21T00:09:41;23.05;;;15.90;;
26774;SDS011;14362;51.902;7.626;2023-11-21T00:13:43;23.20;;;14.63;;
26774;SDS011;14362;51.902;7.626;2023-11-21T00:17:45;24.73;;;14.80;;
26774;SDS011;14362;51.902;7.626;2023-11-21T00:21:48;21.40;;;15.02;;
26774;SDS011;14362;51.902;7.626;2023-11-21T00:25:50;24.65;;;14.93;;
26774;SDS011;14362;51.902;7.626;2023-11-21T00:29:52;23.48;;;15.98;;
26774;SDS011;14362;51.902;7.626;2023-11-21T00:33:53;19.25;;;14.63;;
26774;SDS011;14362;51.902;7.626;2023-11-21T00:37:57;21.73;;;14.25;;
26774;SDS011;14362;51.902;7.626;2023-11-21T00:41:58;22.55;;;15.30;;
26774;SDS011;14362;51.902;7.626;2023-11-21T00:46:03;25.27;;;14.95;;
26774;SDS011;14362;51.902;7.626;2023-11-21T00:50:05;28.65;;;16.13;;
26774;SDS011;14362;51.902;7.626;2023-11-21T00:54:09;25.65;;;16.30;;
26774;SDS011;14362;51.902;7.626;2023-11-21T00:58:11;17.90;;;13.75;;
26774;SDS011;14362;51.902;7.626;2023-11-21T01:02:12;24.50;;;16.05;;
26774;SDS011;14362;51.902;7.626;2023-11-21T01:06:14;22.52;;;15.45;;
26774;SDS011;14362;51.902;7.626;2023-11-21T01:10:16;24.55;;;17.50;;
26774;SDS011;14362;51.902;7.626;2023-11-21T01:14:18;24.45;;;15.32;;
26774;SDS011;14362;51.902;7.626;2023-11-21T01:18:19;23.80;;;15.07;;
26774;SDS011;14362;51.902;7.626;2023-11-21T01:22:21;20.67;;;15.45;;
26774;SDS011;14362;51.902;7.626;2023-11-21T01:26:27;25.67;;;16.88;;
26774;SDS011;14362;51.902;7.626;2023-11-21T01:30:28;28.15;;;17.88;;
26774;SDS011;14362;51.902;7.626;2023-11-21T01:34:30;28.00;;;17.25;;
26774;SDS011;14362;51.902;7.626;2023-11-21T01:38:31;28.20;;;18.65;;
26774;SDS011;14362;51.902;7.626;2023-11-21T01:42:34;26.88;;;18.27;;
26774;SDS011;14362;51.902;7.626;2023-11-21T01:46:36;28.65;;;18.48;;
26774;SDS011;14362;51.902;7.626;2023-11-21T01:50:37;27.98;;;18.02;;
26774;SDS011;14362;51.902;7.626;2023-11-21T01:54:39;25.73;;;17.63;;
26774;SDS011;14362;51.902;7.626;2023-11-21T01:58:43;28.33;;;17.75;;
26774;SDS011;14362;51.902;7.626;2023-11-21T02:02:47;26.77;;;18.27;;
26774;SDS011;14362;51.902;7.626;2023-11-21T02:06:49;30.05;;;18.38;;
26774;SDS011;14362;51.902;7.626;2023-11-21T02:10:51;29.15;;;17.90;;
26774;SDS011;14362;51.902;7.626;2023-11-21T02:14:54;27.33;;;18.33;;
26774;SDS011;14362;51.902;7.626;2023-11-21T02:18:55;26.38;;;17.67;;
26774;SDS011;14362;51.902;7.626;2023-11-21T02:22:59;33.08;;;18.92;;
26774;SDS011;14362;51.902;7.626;2023-11-21T02:27:01;28.60;;;18.90;;
26774;SDS011;14362;51.902;7.626;2023-11-21T02:31:03;26.75;;;18.10;;
26774;SDS011;14362;51.902;7.626;2023-11-21T02:35:04;32.42;;;19.08;;
26774;SDS011;14362;51.902;7.626;2023-11-21T02:39:09;29.08;;;17.58;;
26774;SDS011;14362;51.902;7.626;2023-11-21T02:43:11;33.78;;;17.98;;
26774;SDS011;14362;51.902;7.626;2023-11-21T02:47:12;31.67;;;18.92;;
26774;SDS011;14362;51.902;7.626;2023-11-21T02:51:14;25.08;;;17.50;;
26774;SDS011;14362;51.902;7.626;2023-11-21T02:55:17;28.55;;;17.95;;
26774;SDS011;14362;51.902;7.626;2023-11-21T02:59:18;30.90;;;16.85;;
26774;SDS011;14362;51.902;7.626;2023-11-21T03:03:20;23.70;;;16.67;;
26774;SDS011;14362;51.902;7.626;2023-11-21T03:07:23;28.90;;;17.45;;
26774;SDS011;14362;51.902;7.626;2023-11-21T03:11:26;23.58;;;15.23;;
26774;SDS011;14362;51.902;7.626;2023-11-21T03:15:28;26.23;;;18.02;;
26774;SDS011;14362;51.902;7.626;2023-11-21T03:19:29;26.73;;;16.58;;
26774;SDS011;14362;51.902;7.626;2023-11-21T03:23:31;26.38;;;16.35;;
26774;SDS011;14362;51.902;7.626;2023-11-21T03:27:33;32.13;;;18.58;;
26774;SDS011;14362;51.902;7.626;2023-11-21T03:31:35;36.47;;;19.48;;
26774;SDS011;14362;51.902;7.626;2023-11-21T03:35:36;29.83;;;17.63;;
26774;SDS011;14362;51.902;7.626;2023-11-21T03:39:38;32.15;;;17.80;;
26774;SDS011;14362;51.902;7.626;2023-11-21T03:43:40;36.50;;;18.80;;
26774;SDS011;14362;51.902;7.626;2023-11-21T03:47:42;47.33;;;20.88;;
26774;SDS011;14362;51.902;7.626;2023-11-21T03:51:43;39.70;;;18.42;;
26774;SDS011;14362;51.902;7.626;2023-11-21T03:55:45;37.35;;;18.83;;
26774;SDS011;14362;51.902;7.626;2023-11-21T03:59:48;36.78;;;19.30;;
26774;SDS011;14362;51.902;7.626;2023-11-21T04:03:49;43.15;;;20.52;;
26774;SDS011;14362;51.902;7.626;2023-11-21T04:07:51;44.05;;;20.27;;
26774;SDS011;14362;51.902;7.626;2023-11-21T04:11:52;44.67;;;20.05;;
26774;SDS011;14362;51.902;7.626;2023-11-21T04:15:55;48.42;;;20.20;;
26774;SDS011;14362;51.902;7.626;2023-11-21T04:19:56;47.28;;;20.77;;
26774;SDS011;14362;51.902;7.626;2023-11-21T04:23:58;45.00;;;19.67;;
26774;SDS011;14362;51.902;7.626;2023-11-21T04:27:59;46.15;;;21.48;;
26774;SDS011;14362;51.902;7.626;2023-11-21T04:32:02;66.60;;;24.88;;
26774;SDS011;14362;51.902;7.626;2023-11-21T04:36:04;58.92;;;23.63;;
26774;SDS011;14362;51.902;7.626;2023-11-21T04:40:07;55.33;;;24.05;;
26774;SDS011;14362;51.902;7.626;2023-11-21T04:44:09;58.80;;;23.35;;
26774;SDS011;14362;51.902;7.626;2023-11-21T04:48:12;61.25;;;24.33;;
26774;SDS011;14362;51.902;7.626;2023-11-21T04:52:14;65.32;;;26.75;;
26774;SDS011;14362;51.902;7.626;2023-11-21T04:56:15;55.33;;;23.85;;
26774;SDS011;14362;51.902;7.626;2023-11-21T05:00:17;61.30;;;25.58;;
26774;SDS011;14362;51.902;7.626;2023-11-21T05:04:20;65.75;;;25.58;;
26774;SDS011;14362;51.902;7.626;2023-11-21T05:08:22;64.55;;;25.70;;
26774;SDS011;14362;51.902;7.626;2023-11-21T05:12:23;61.75;;;23.98;;
26774;SDS011;14362;51.902;7.626;2023-11-21T05:16:25;53.90;;;24.58;;
26774;SDS011;14362;51.902;7.626;2023-11-21T05:20:29;57.20;;;23.45;;
26774;SDS011;14362;51.902;7.626;2023-11-21T05:24:31;56.97;;;23.15;;
26774;SDS011;14362;51.902;7.626;2023-11-21T05:28:32;65.07;;;27.25;;
26774;SDS011;14362;51.902;7.626;2023-11-21T05:32:34;64.07;;;25.65;;
26774;SDS011;14362;51.902;7.626;2023-11-21T05:36:37;56.65;;;25.20;;
26774;SDS011;14362;51.902;7.626;2023-11-21T05:40:38;57.83;;;24.42;;
26774;SDS011;14362;51.902;7.626;2023-11-21T05:44:41;58.13;;;24.63;;
26774;SDS011;14362;51.902;7.626;2023-11-21T05:48:44;66.30;;;26.23;;
26774;SDS011;14362;51.902;7.626;2023-11-21T05:52:47;53.72;;;22.50;;
26774;SDS011;14362;51.902;7.626;2023-11-21T05:56:48;49.10;;;22.05;;
26774;SDS011;14362;51.902;7.626;2023-11-21T06:00:50;51.35;;;23.02;;
26774;SDS011;14362;51.902;7.626;2023-11-21T06:04:51;55.25;;;23.05;;
26774;SDS011;14362;51.902;7.626;2023-11-21T06:08:54;47.72;;;22.30;;
26774;SDS011;14362;51.902;7.626;2023-11-21T06:12:55;48.33;;;21.55;;
26774;SDS011;14362;51.902;7.626;2023-11-21T06:16:57;47.80;;;21.52;;
26774;SDS011;14362;51.902;7.626;2023-11-21T06:20:59;44.53;;;19.48;;
26774;SDS011;14362;51.902;7.626;2023-11-21T06:25:02;50.33;;;21.15;;
26774;SDS011;14362;51.902;7.626;2023-11-21T06:29:04;42.72;;;19.38;;
26774;SDS011;14362;51.902;7.626;2023-11-21T06:33:07;47.72;;;20.80;;
26774;SDS011;14362;51.902;7.626;2023-11-21T06:37:08;46.97;;;21.05;;
26774;SDS011;14362;51.902;7.626;2023-11-21T06:41:11;53.30;;;21.65;;
26774;SDS011;14362;51.902;7.626;2023-11-21T06:45:16;49.70;;;21.38;;
26774;SDS011;14362;51.902;7.626;2023-11-21T06:49:17;49.00;;;22.00;;
26774;SDS011;14362;51.902;7.626;2023-11-21T06:53:19;50.53;;;23.42;;
26774;SDS011;14362;51.902;7.626;2023-11-21T06:57:22;49.67;;;22.23;;
26774;SDS011;14362;51.902;7.626;2023-11-21T07:01:24;42.33;;;21.13;;
26774;SDS011;14362;51.902;7.626;2023-11-21T07:05:25;44.53;;;22.15;;
26774;SDS011;14362;51.902;7.626;2023-11-21T07:09:27;47.30;;;22.50;;
26774;SDS011;14362;51.902;7.626;2023-11-21T07:13:30;50.53;;;22.50;;
26774;SDS011;14362;51.902;7.626;2023-11-21T07:17:32;52.20;;;22.85;;
26774;SDS011;14362;51.902;7.626;2023-11-21T07:21:35;43.72;;;19.27;;
26774;SDS011;14362;51.902;7.626;2023-11-21T07:25:37;72.47;;;25.90;;
26774;SDS011;14362;51.902;7.626;2023-11-21T07:29:40;56.08;;;24.48;;
26774;SDS011;14362;51.902;7.626;2023-11-21T07:33:41;58.00;;;23.08;;
26774;SDS011;14362;51.902;7.626;2023-11-21T07:37:43;50.25;;;21.33;;
26774;SDS011;14362;51.902;7.626;2023-11-21T07:41:44;58.97;;;21.65;;
26774;SDS011;14362;51.902;7.626;2023-11-21T07:45:49;51.38;;;21.88;;
26774;SDS011;14362;51.902;7.626;2023-11-21T07:49:51;56.08;;;22.10;;
26774;SDS011;14362;51.902;7.626;2023-11-21T07:53:52;51.85;;;21.45;;
26774;SDS011;14362;51.902;7.626;2023-11-21T07:57:54;50.47;;;22.92;;
26774;SDS011;14362;51.902;7.626;2023-11-21T08:01:57;54.67;;;21.60;;
26774;SDS011;14362;51.902;7.626;2023-11-21T08:05:59;54.92;;;21.35;;
26774;SDS011;14362;51.902;7.626;2023-11-21T08:10:03;53.90;;;22.10;;
26774;SDS011;14362;51.902;7.626;2023-11-21T08:14:05;59.53;;;23.27;;
26774;SDS011;14362;51.902;7.626;2023-11-21T08:18:08;52.33;;;22.40;;
26774;SDS011;14362;51.902;7.626;2023-11-21T08:22:10;54.70;;;21.85;;
26774;SDS011;14362;51.902;7.626;2023-11-21T08:26:12;53.67;;;23.70;;
26774;SDS011;14362;51.902;7.626;2023-11-21T08:30:13;54.65;;;22.45;;
26774;SDS011;14362;51.902;7.626;2023-11-21T08:34:18;59.75;;;23.88;;
26774;SDS011;14362;51.902;7.626;2023-11-21T08:38:19;67.55;;;23.58;;
26774;SDS011;14362;51.902;7.626;2023-11-21T08:42:21;51.55;;;21.48;;
26774;SDS011;14362;51.902;7.626;2023-11-21T08:46:23;54.28;;;20.38;;
26774;SDS011;14362;51.902;7.626;2023-11-21T08:50:27;63.50;;;23.58;;
26774;SDS011;14362;51.902;7.626;2023-11-21T08:54:28;53.53;;;22.55;;
26774;SDS011;14362;51.902;7.626;2023-11-21T08:58:31;60.13;;;23.45;;
26774;SDS011;14362;51.902;7.626;2023-11-21T09:02:33;68.32;;;24.95;;
26774;SDS011;14362;51.902;7.626;2023-11-21T09:06:36;53.33;;;22.27;;
26774;SDS011;14362;51.902;7.626;2023-11-21T09:10:37;58.45;;;23.23;;
26774;SDS011;14362;51.902;7.626;2023-11-21T09:14:39;43.17;;;21.35;;
26774;SDS011;14362;51.902;7.626;2023-11-21T09:18:41;55.60;;;22.50;;
26774;SDS011;14362;51.902;7.626;2023-11-21T09:22:43;51.05;;;23.08;;
26774;SDS011;14362;51.902;7.626;2023-11-21T09:26:46;46.88;;;19.30;;
26774;SDS011;14362;51.902;7.626;2023-11-21T09:30:47;55.30;;;22.05;;
26774;SDS011;14362;51.902;7.626;2023-11-21T09:34:50;54.42;;;23.13;;
26774;SDS011;14362;51.902;7.626;2023-11-21T09:38:53;49.35;;;21.08;;
26774;SDS011;14362;51.902;7.626;2023-11-21T09:42:55;52.72;;;21.90;;
26774;SDS011;14362;51.902;7.626;2023-11-21T09:46:58;60.75;;;22.13;;
26774;SDS011;14362;51.902;7.626;2023-11-21T09:51:00;58.45;;;21.52;;
26774;SDS011;14362;51.902;7.626;2023-11-21T09:55:05;47.65;;;21.02;;
26774;SDS011;14362;51.902;7.626;2023-11-21T09:59:08;42.97;;;18.95;;
26774;SDS011;14362;51.902;7.626;2023-11-21T10:03:15;31.52;;;14.52;;
26774;SDS011;14362;51.902;7.626;2023-11-21T10:07:17;33.97;;;14.20;;
26774;SDS011;14362;51.902;7.626;2023-11-21T10:11:21;24.05;;;12.82;;
26774;SDS011;14362;51.902;7.626;2023-11-21T10:15:25;21.02;;;11.52;;
26774;SDS011;14362;51.902;7.626;2023-11-21T10:19:27;23.70;;;11.38;;
26774;SDS011;14362;51.902;7.626;2023-11-21T10:23:29;21.88;;;11.27;;
26774;SDS011;14362;51.902;7.626;2023-11-21T10:27:31;21.35;;;11.43;;
26774;SDS011;14362;51.902;7.626;2023-11-21T10:31:33;20.73;;;11.68;;
26774;SDS011;14362;51.902;7.626;2023-11-21T10:35:40;21.42;;;12.60;;
26774;SDS011;14362;51.902;7.626;2023-11-21T10:39:46;23.88;;;12.40;;
26774;SDS011;14362;51.902;7.626;2023-11-21T10:43:49;26.48;;;14.05;;
26774;SDS011;14362;51.902;7.626;2023-11-21T10:47:54;26.52;;;13.90;;
26774;SDS011;14362;51.902;7.626;2023-11-21T10:51:56;24.88;;;14.35;;
26774;SDS011;14362;51.902;7.626;2023-11-21T10:56:01;26.02;;;13.88;;
26774;SDS011;14362;51.902;7.626;2023-11-21T11:00:08;24.08;;;13.73;;
26774;SDS011;14362;51.902;7.626;2023-11-21T11:04:13;21.17;;;12.23;;
26774;SDS011;14362;51.902;7.626;2023-11-21T11:08:16;24.63;;;13.38;;
26774;SDS011;14362;51.902;7.626;2023-11-21T11:12:20;21.20;;;11.55;;
26774;SDS011;14362;51.902;7.626;2023-11-21T11:16:23;23.73;;;13.73;;
26774;SDS011;14362;51.902;7.626;2023-11-21T11:20:27;21.27;;;11.80;;
26774;SDS011;14362;51.902;7.626;2023-11-21T11:24:44;21.20;;;11.77;;
26774;SDS011;14362;51.902;7.626;2023-11-21T11:29:02;18.67;;;11.50;;
26774;SDS011;14362;51.902;7.626;2023-11-21T11:33:12;21.88;;;12.18;;
26774;SDS011;14362;51.902;7.626;2023-11-21T11:37:25;20.73;;;11.65;;
26774;SDS011;14362;51.902;7.626;2023-11-21T11:41:28;18.65;;;11.05;;
26774;SDS011;14362;51.902;7.626;2023-11-21T11:49:36;20.33;;;10.55;;
26774;SDS011;14362;51.902;7.626;2023-11-21T11:53:40;20.10;;;11.63;;
26774;SDS011;14362;51.902;7.626;2023-11-21T11:57:42;17.17;;;10.20;;
26774;SDS011;14362;51.902;7.626;2023-11-21T12:01:45;16.65;;;9.38;;
26774;SDS011;14362;51.902;7.626;2023-11-21T12:05:49;17.17;;;9.90;;
26774;SDS011;14362;51.902;7.626;2023-11-21T12:13:54;15.80;;;9.43;;
26774;SDS011;14362;51.902;7.626;2023-11-21T12:17:56;12.23;;;8.18;;
26774;SDS011;14362;51.902;7.626;2023-11-21T12:22:00;11.52;;;6.43;;
26774;SDS011;14362;51.902;7.626;2023-11-21T12:26:01;9.60;;;7.07;;
26774;SDS011;14362;51.902;7.626;2023-11-21T12:30:03;10.07;;;6.55;;
26774;SDS011;14362;51.902;7.626;2023-11-21T12:34:06;10.77;;;6.63;;
26774;SDS011;14362;51.902;7.626;2023-11-21T12:38:10;10.15;;;6.90;;
26774;SDS011;14362;51.902;7.626;2023-11-21T12:42:11;7.95;;;5.63;;
26774;SDS011;14362;51.902;7.626;2023-11-21T12:46:13;9.13;;;6.32;;
26774;SDS011;14362;51.902;7.626;2023-11-21T12:50:15;8.13;;;5.45;;
26774;SDS011;14362;51.902;7.626;2023-11-21T12:54:24;8.05;;;5.32;;
26774;SDS011;14362;51.902;7.626;2023-11-21T12:58:26;7.35;;;5.57;;
26774;SDS011;14362;51.902;7.626;2023-11-21T13:02:27;11.05;;;6.47;;
26774;SDS011;14362;51.902;7.626;2023-11-21T13:06:31;9.50;;;7.35;;
26774;SDS011;14362;51.902;7.626;2023-11-21T13:10:40;9.45;;;6.93;;
26774;SDS011;14362;51.902;7.626;2023-11-21T13:14:46;11.43;;;6.85;;
26774;SDS011;14362;51.902;7.626;2023-11-21T13:18:48;7.72;;;6.60;;
26774;SDS011;14362;51.902;7.626;2023-11-21T13:22:49;13.52;;;8.38;;
26774;SDS011;14362;51.902;7.626;2023-11-21T13:26:55;10.65;;;8.55;;
26774;SDS011;14362;51.902;7.626;2023-11-21T13:30:58;11.40;;;9.13;;
26774;SDS011;14362;51.902;7.626;2023-11-21T13:35:03;13.27;;;9.77;;
26774;SDS011;14362;51.902;7.626;2023-11-21T13:39:08;13.98;;;10.65;;
26774;SDS011;14362;51.902;7.626;2023-11-21T13:43:17;19.25;;;12.35;;
26774;SDS011;14362;51.902;7.626;2023-11-21T13:47:20;17.45;;;13.10;;
26774;SDS011;14362;51.902;7.626;2023-11-21T13:51:24;23.25;;;14.25;;
26774;SDS011;14362;51.902;7.626;2023-11-21T13:55:36;14.77;;;11.50;;
26774;SDS011;14362;51.902;7.626;2023-11-21T13:59:40;16.05;;;11.90;;
26774;SDS011;14362;51.902;7.626;2023-11-21T14:03:44;13.23;;;10.88;;
26774;SDS011;14362;51.902;7.626;2023-11-21T14:07:52;14.75;;;10.52;;
26774;SDS011;14362;51.902;7.626;2023-11-21T14:11:53;18.70;;;13.68;;
26774;SDS011;14362;51.902;7.626;2023-11-21T14:15:58;21.23;;;14.15;;
26774;SDS011;14362;51.902;7.626;2023-11-21T14:20:02;22.00;;;15.90;;
26774;SDS011;14362;51.902;7.626;2023-11-21T14:24:05;22.75;;;14.35;;
26774;SDS011;14362;51.902;7.626;2023-11-21T14:28:09;20.60;;;14.53;;
26774;SDS011;14362;51.902;7.626;2023-11-21T14:32:13;15.57;;;10.95;;
26774;SDS011;14362;51.902;7.626;2023-11-21T14:36:15;11.83;;;9.13;;
26774;SDS011;14362;51.902;7.626;2023-11-21T14:40:17;12.20;;;8.48;;
26774;SDS011;14362;51.902;7.626;2023-11-21T14:44:21;11.13;;;7.70;;
26774;SDS011;14362;51.902;7.626;2023-11-21T14:48:27;9.00;;;7.20;;
26774;SDS011;14362;51.902;7.626;2023-11-21T14:52:42;13.23;;;7.95;;
26774;SDS011;14362;51.902;7.626;2023-11-21T14:56:55;10.50;;;7.38;;
26774;SDS011;14362;51.902;7.626;2023-11-21T15:00:57;11.27;;;7.47;;
26774;SDS011;14362;51.902;7.626;2023-11-21T15:05:02;10.35;;;7.72;;
26774;SDS011;14362;51.902;7.626;2023-11-21T15:09:03;9.98;;;8.10;;
26774;SDS011;14362;51.902;7.626;2023-11-21T15:13:28;10.45;;;7.78;;
26774;SDS011;14362;51.902;7.626;2023-11-21T15:17:30;11.52;;;7.90;;
26774;SDS011;14362;51.902;7.626;2023-11-21T15:21:33;8.65;;;6.90;;
26774;SDS011;14362;51.902;7.626;2023-11-21T15:25:35;14.05;;;7.20;;
26774;SDS011;14362;51.902;7.626;2023-11-21T15:29:36;10.95;;;7.20;;
26774;SDS011;14362;51.902;7.626;2023-11-21T15:33:38;8.88;;;6.55;;
26774;SDS011;14362;51.902;7.626;2023-11-21T15:37:41;9.52;;;7.05;;
26774;SDS011;14362;51.902;7.626;2023-11-21T15:41:43;9.40;;;6.55;;
26774;SDS011;14362;51.902;7.626;2023-11-21T16:08:43;8.35;;;6.55;;
26774;SDS011;14362;51.902;7.626;2023-11-21T16:12:44;7.00;;;5.60;;
26774;SDS011;14362;51.902;7.626;2023-11-21T16:16:46;9.63;;;6.47;;
26774;SDS011;14362;51.902;7.626;2023-11-21T16:20:48;8.15;;;6.63;;
26774;SDS011;14362;51.902;7.626;2023-11-21T16:24:51;7.70;;;5.90;;
26774;SDS011;14362;51.902;7.626;2023-11-21T16:28:53;8.40;;;5.93;;
26774;SDS011;14362;51.902;7.626;2023-11-21T16:32:55;7.82;;;6.35;;
26774;SDS011;14362;51.902;7.626;2023-11-21T16:36:56;11.82;;;6.65;;
26774;SDS011;14362;51.902;7.626;2023-11-21T16:40:59;9.75;;;6.80;;
26774;SDS011;14362;51.902;7.626;2023-11-21T16:45:03;10.20;;;7.63;;
26774;SDS011;14362;51.902;7.626;2023-11-21T16:49:04;9.43;;;8.00;;
26774;SDS011;14362;51.902;7.626;2023-11-21T16:53:06;11.15;;;8.23;;
26774;SDS011;14362;51.902;7.626;2023-11-21T16:57:09;12.18;;;8.82;;
26774;SDS011;14362;51.902;7.626;2023-11-21T17:01:12;11.95;;;8.13;;
26774;SDS011;14362;51.902;7.626;2023-11-21T17:05:13;13.52;;;8.73;;
26774;SDS011;14362;51.902;7.626;2023-11-21T17:09:15;13.20;;;9.63;;
26774;SDS011;14362;51.902;7.626;2023-11-21T17:13:19;12.88;;;8.73;;
26774;SDS011;14362;51.902;7.626;2023-11-21T17:17:21;12.98;;;8.93;;
26774;SDS011;14362;51.902;7.626;2023-11-21T17:21:23;13.75;;;9.30;;
26774;SDS011;14362;51.902;7.626;2023-11-21T17:25:25;13.85;;;9.27;;
26774;SDS011;14362;51.902;7.626;2023-11-21T17:29:28;13.00;;;9.35;;
26774;SDS011;14362;51.902;7.626;2023-11-21T17:33:29;15.73;;;9.93;;
26774;SDS011;14362;51.902;7.626;2023-11-21T17:37:31;13.18;;;9.57;;
26774;SDS011;14362;51.902;7.626;2023-11-21T17:41:33;11.82;;;8.85;;
26774;SDS011;14362;51.902;7.626;2023-11-21T17:45:36;12.63;;;8.48;;
26774;SDS011;14362;51.902;7.626;2023-11-21T17:49:37;15.45;;;9.32;;
26774;SDS011;14362;51.902;7.626;2023-11-21T17:53:39;15.15;;;10.20;;
26774;SDS011;14362;51.902;7.626;2023-11-21T17:57:41;13.07;;;9.50;;
26774;SDS011;14362;51.902;7.626;2023-11-21T18:01:46;19.25;;;9.35;;
26774;SDS011;14362;51.902;7.626;2023-11-21T18:05:47;12.55;;;9.00;;
26774;SDS011;14362;51.902;7.626;2023-11-21T18:09:49;14.07;;;10.15;;
26774;SDS011;14362;51.902;7.626;2023-11-21T18:13:50;15.23;;;9.50;;
26774;SDS011;14362;51.902;7.626;2023-11-21T18:17:54;15.80;;;9.70;;
26774;SDS011;14362;51.902;7.626;2023-11-21T18:21:55;15.15;;;10.13;;
26774;SDS011;14362;51.902;7.626;2023-11-21T18:25:57;11.68;;;9.50;;
26774;SDS011;14362;51.902;7.626;2023-11-21T18:29:58;15.38;;;11.25;;
26774;SDS011;14362;51.902;7.626;2023-11-21T18:34:01;18.65;;;11.45;;
26774;SDS011;14362;51.902;7.626;2023-11-21T18:38:03;13.70;;;10.50;;
26774;SDS011;14362;51.902;7.626;2023-11-21T18:42:04;14.27;;;11.15;;
26774;SDS011;14362;51.902;7.626;2023-11-21T18:46:06;15.10;;;10.40;;
26774;SDS011;14362;51.902;7.626;2023-11-21T18:50:09;14.20;;;10.27;;
26774;SDS011;14362;51.902;7.626;2023-11-21T18:54:17;17.23;;;10.32;;
26774;SDS011;14362;51.902;7.626;2023-11-21T18:58:18;15.13;;;11.25;;
26774;SDS011;14362;51.902;7.626;2023-11-21T19:02:20;13.90;;;9.70;;
26774;SDS011;14362;51.902;7.626;2023-11-21T19:06:23;16.05;;;10.65;;
26774;SDS011;14362;51.902;7.626;2023-11-21T19:10:25;14.55;;;10.10;;
26774;SDS011;14362;51.902;7.626;2023-11-21T19:14:27;14.45;;;10.52;;
26774;SDS011;14362;51.902;7.626;2023-11-21T19:18:29;13.90;;;10.35;;
26774;SDS011;14362;51.902;7.626;2023-11-21T19:22:32;16.27;;;10.38;;
26774;SDS011;14362;51.902;7.626;2023-11-21T19:26:33;13.50;;;10.10;;
26774;SDS011;14362;51.902;7.626;2023-11-21T19:30:37;16.33;;;11.23;;
26774;SDS011;14362;51.902;7.626;2023-11-21T19:34:41;14.73;;;10.20;;
26774;SDS011;14362;51.902;7.626;2023-11-21T19:38:45;15.18;;;10.25;;
26774;SDS011;14362;51.902;7.626;2023-11-21T19:42:46;17.63;;;11.85;;
26774;SDS011;14362;51.902;7.626;2023-11-21T19:46:48;16.98;;;11.02;;
26774;SDS011;14362;51.902;7.626;2023-11-21T19:50:49;15.32;;;11.23;;
26774;SDS011;14362;51.902;7.626;2023-11-21T19:54:52;16.77;;;12.00;;
26774;SDS011;14362;51.902;7.626;2023-11-21T19:58:54;20.77;;;11.25;;
26774;SDS011;14362;51.902;7.626;2023-11-21T20:02:55;20.60;;;11.48;;
26774;SDS011;14362;51.902;7.626;2023-11-21T20:06:57;20.58;;;12.80;;
26774;SDS011;14362;51.902;7.626;2023-11-21T20:11:00;16.40;;;11.18;;
26774;SDS011;14362;51.902;7.626;2023-11-21T20:15:02;19.75;;;11.45;;
26774;SDS011;14362;51.902;7.626;2023-11-21T20:19:06;19.13;;;12.15;;
26774;SDS011;14362;51.902;7.626;2023-11-21T20:23:08;18.58;;;11.35;;
26774;SDS011;14362;51.902;7.626;2023-11-21T20:27:10;16.92;;;12.02;;
26774;SDS011;14362;51.902;7.626;2023-11-21T20:31:12;18.30;;;12.57;;
26774;SDS011;14362;51.902;7.626;2023-11-21T20:35:13;18.10;;;12.60;;
26774;SDS011;14362;51.902;7.626;2023-11-21T20:39:15;19.40;;;12.55;;
26774;SDS011;14362;51.902;7.626;2023-11-21T20:43:18;17.30;;;12.20;;
26774;SDS011;14362;51.902;7.626;2023-11-21T20:47:19;16.55;;;11.82;;
26774;SDS011;14362;51.902;7.626;2023-11-21T20:51:21;21.05;;;11.45;;
26774;SDS011;14362;51.902;7.626;2023-11-21T20:55:22;16.42;;;11.05;;
26774;SDS011;14362;51.902;7.626;2023-11-21T20:59:25;12.88;;;9.45;;
26774;SDS011;14362;51.902;7.626;2023-11-21T21:03:27;8.45;;;6.22;;
26774;SDS011;14362;51.902;7.626;2023-11-21T21:07:28;8.65;;;5.88;;
26774;SDS011;14362;51.902;7.626;2023-11-21T21:11:30;7.32;;;5.97;;
26774;SDS011;14362;51.902;7.626;2023-11-21T21:15:33;8.20;;;6.25;;
26774;SDS011;14362;51.902;7.626;2023-11-21T21:19:35;8.07;;;6.03;;
26774;SDS011;14362;51.902;7.626;2023-11-21T21:23:36;8.60;;;6.25;;
26774;SDS011;14362;51.902;7.626;2023-11-21T21:27:38;7.93;;;6.50;;
26774;SDS011;14362;51.902;7.626;2023-11-21T21:31:41;7.07;;;5.63;;
26774;SDS011;14362;51.902;7.626;2023-11-21T21:35:42;6.75;;;5.70;;
26774;SDS011;14362;51.902;7.626;2023-11-21T21:39:44;8.73;;;6.45;;
26774;SDS011;14362;51.902;7.626;2023-11-21T21:43:46;7.35;;;5.72;;
26774;SDS011;14362;51.902;7.626;2023-11-21T21:47:49;6.53;;;5.68;;
26774;SDS011;14362;51.902;7.626;2023-11-21T21:51:51;6.68;;;5.68;;
26774;SDS011;14362;51.902;7.626;2023-11-21T21:55:52;7.95;;;6.05;;
26774;SDS011;14362;51.902;7.626;2023-11-21T21:59:54;8.13;;;5.60;;
26774;SDS011;14362;51.902;7.626;2023-11-21T22:03:57;7.68;;;5.88;;
26774;SDS011;14362;51.902;7.626;2023-11-21T22:08:00;8.18;;;6.10;;
26774;SDS011;14362;51.902;7.626;2023-11-21T22:12:01;7.85;;;5.47;;
26774;SDS011;14362;51.902;7.626;2023-11-21T22:16:03;8.82;;;5.72;;
26774;SDS011;14362;51.902;7.626;2023-11-21T22:20:07;10.20;;;6.60;;
26774;SDS011;14362;51.902;7.626;2023-11-21T22:24:09;7.93;;;5.45;;
26774;SDS011;14362;51.902;7.626;2023-11-21T22:28:11;8.02;;;5.95;;
26774;SDS011;14362;51.902;7.626;2023-11-21T22:32:12;11.27;;;7.40;;
26774;SDS011;14362;51.902;7.626;2023-11-21T22:36:16;8.00;;;5.90;;
26774;SDS011;14362;51.902;7.626;2023-11-21T22:40:17;9.45;;;6.20;;
26774;SDS011;14362;51.902;7.626;2023-11-21T22:44:19;10.75;;;6.90;;
26774;SDS011;14362;51.902;7.626;2023-11-21T22:48:21;14.93;;;8.05;;
26774;SDS011;14362;51.902;7.626;2023-11-21T22:52:23;11.63;;;7.82;;
26774;SDS011;14362;51.902;7.626;2023-11-21T22:56:26;9.65;;;7.93;;
26774;SDS011;14362;51.902;7.626;2023-11-21T23:00:27;11.77;;;8.13;;
26774;SDS011;14362;51.902;7.626;2023-11-21T23:04:30;10.40;;;8.27;;
26774;SDS011;14362;51.902;7.626;2023-11-21T23:08:33;12.60;;;8.57;;
26774;SDS011;14362;51.902;7.626;2023-11-21T23:12:34;13.20;;;9.27;;
26774;SDS011;14362;51.902;7.626;2023-11-21T23:16:36;13.20;;;9.25;;
26774;SDS011;14362;51.902;7.626;2023-11-21T23:20:37;16.15;;;10.35;;
26774;SDS011;14362;51.902;7.626;2023-11-21T23:24:41;18.25;;;10.05;;
26774;SDS011;14362;51.902;7.626;2023-11-21T23:28:42;15.00;;;10.07;;
26774;SDS011;14362;51.902;7.626;2023-11-21T23:32:43;14.13;;;10.70;;
26774;SDS011;14362;51.902;7.626;2023-11-21T23:36:45;16.38;;;10.82;;
26774;SDS011;14362;51.902;7.626;2023-11-21T23:40:48;15.75;;;10.48;;
26774;SDS011;14362;51.902;7.626;2023-11-21T23:44:50;13.38;;;9.57;;
26774;SDS011;14362;51.902;7.626;2023-11-21T23:48:53;18.25;;;11.20;;
26774;SDS011;14362;51.902;7.626;2023-11-21T23:52:54;18.58;;;11.40;;
26774;SDS011;14362;51.902;7.626;2023-11-21T23:56:57;21.02;;;11.27;;
